sensor_id;sensor_type;location;lat;lon;timestamp;P1;durP1;ratioP1;P2;durP2;ratioP2
19645;SDS011;9971;52.446;13.452;2022-11-15T00:12:21;10.80;;;9.87;;
19645;SDS011;9971;52.446;13.452;2022-11-15T00:17:23;22.40;;;18.48;;
19645;SDS011;9971;52.446;13.452;2022-11-15T00:22:30;21.35;;;18.67;;
19645;SDS011;9971;52.446;13.452;2022-11-15T00:27:28;21.13;;;18.83;;
19645;SDS011;9971;52.446;13.452;2022-11-15T00:32:31;24.80;;;22.40;;
19645;SDS011;9971;52.446;13.452;2022-11-15T01:02:34;8.77;;;8.00;;
19645;SDS011;9971;52.446;13.452;2022-11-15T01:07:36;21.77;;;18.73;;
19645;SDS011;9971;52.446;13.452;2022-11-15T01:12:39;21.05;;;17.85;;
19645;SDS011;9971;52.446;13.452;2022-11-15T01:17:41;21.73;;;18.30;;
19645;SDS011;9971;52.446;13.452;2022-11-15T01:22:44;22.42;;;18.73;;
19645;SDS011;9971;52.446;13.452;2022-11-15T01:27:46;21.97;;;19.07;;
19645;SDS011;9971;52.446;13.452;2022-11-15T01:32:49;22.75;;;19.57;;
19645;SDS011;9971;52.446;13.452;2022-11-15T01:37:51;24.72;;;20.50;;
19645;SDS011;9971;52.446;13.452;2022-11-15T02:07:54;18.82;;;16.85;;
19645;SDS011;9971;52.446;13.452;2022-11-15T02:12:57;20.32;;;18.12;;
19645;SDS011;9971;52.446;13.452;2022-11-15T02:18:04;22.17;;;19.43;;
19645;SDS011;9971;52.446;13.452;2022-11-15T02:23:23;21.33;;;18.53;;
19645;SDS011;9971;52.446;13.452;2022-11-15T02:28:26;24.50;;;20.47;;
19645;SDS011;9971;52.446;13.452;2022-11-15T02:58:36;17.20;;;15.38;;
19645;SDS011;9971;52.446;13.452;2022-11-15T03:03:41;20.60;;;18.40;;
19645;SDS011;9971;52.446;13.452;2022-11-15T03:09:02;22.53;;;19.87;;
19645;SDS011;9971;52.446;13.452;2022-11-15T03:14:10;23.52;;;20.23;;
19645;SDS011;9971;52.446;13.452;2022-11-15T03:44:21;16.93;;;15.15;;
19645;SDS011;9971;52.446;13.452;2022-11-15T03:49:25;23.32;;;19.73;;
19645;SDS011;9971;52.446;13.452;2022-11-15T03:54:26;27.33;;;23.17;;
19645;SDS011;9971;52.446;13.452;2022-11-15T04:24:28;17.10;;;15.23;;
19645;SDS011;9971;52.446;13.452;2022-11-15T04:29:31;22.98;;;20.17;;
19645;SDS011;9971;52.446;13.452;2022-11-15T04:59:35;17.98;;;16.10;;
19645;SDS011;9971;52.446;13.452;2022-11-15T05:04:38;20.35;;;18.37;;
19645;SDS011;9971;52.446;13.452;2022-11-15T05:09:40;22.90;;;20.37;;
19645;SDS011;9971;52.446;13.452;2022-11-15T05:39:43;21.17;;;18.37;;
19645;SDS011;9971;52.446;13.452;2022-11-15T05:44:47;21.50;;;19.20;;
19645;SDS011;9971;52.446;13.452;2022-11-15T05:49:48;25.77;;;22.07;;
19645;SDS011;9971;52.446;13.452;2022-11-15T06:19:50;19.60;;;17.37;;
19645;SDS011;9971;52.446;13.452;2022-11-15T06:24:52;23.07;;;20.65;;
19645;SDS011;9971;52.446;13.452;2022-11-15T06:54:55;30.27;;;18.87;;
19645;SDS011;9971;52.446;13.452;2022-11-15T06:59:58;32.03;;;21.07;;
19645;SDS011;9971;52.446;13.452;2022-11-15T07:30:00;27.98;;;18.17;;
19645;SDS011;9971;52.446;13.452;2022-11-15T07:35:03;31.25;;;20.88;;
19645;SDS011;9971;52.446;13.452;2022-11-15T08:05:06;25.52;;;19.35;;
19645;SDS011;9971;52.446;13.452;2022-11-15T08:10:09;24.20;;;20.68;;
19645;SDS011;9971;52.446;13.452;2022-11-15T08:40:11;20.60;;;18.40;;
19645;SDS011;9971;52.446;13.452;2022-11-15T08:45:14;23.67;;;20.87;;
19645;SDS011;9971;52.446;13.452;2022-11-15T09:15:17;16.73;;;15.05;;
19645;SDS011;9971;52.446;13.452;2022-11-15T09:20:19;18.17;;;16.37;;
19645;SDS011;9971;52.446;13.452;2022-11-15T09:25:22;21.40;;;19.17;;
19645;SDS011;9971;52.446;13.452;2022-11-15T09:30:24;19.92;;;17.92;;
19645;SDS011;9971;52.446;13.452;2022-11-15T09:35:26;19.30;;;17.17;;
19645;SDS011;9971;52.446;13.452;2022-11-15T09:40:30;20.90;;;18.70;;
19645;SDS011;9971;52.446;13.452;2022-11-15T09:45:34;18.73;;;16.73;;
19645;SDS011;9971;52.446;13.452;2022-11-15T09:50:43;17.37;;;15.67;;
19645;SDS011;9971;52.446;13.452;2022-11-15T09:55:47;19.73;;;17.67;;
19645;SDS011;9971;52.446;13.452;2022-11-15T10:00:47;17.60;;;15.60;;
19645;SDS011;9971;52.446;13.452;2022-11-15T10:05:48;16.93;;;15.20;;
19645;SDS011;9971;52.446;13.452;2022-11-15T10:10:52;15.80;;;14.10;;
19645;SDS011;9971;52.446;13.452;2022-11-15T10:15:54;16.40;;;14.80;;
19645;SDS011;9971;52.446;13.452;2022-11-15T10:20:58;20.20;;;18.20;;
19645;SDS011;9971;52.446;13.452;2022-11-15T10:26:00;16.30;;;14.70;;
19645;SDS011;9971;52.446;13.452;2022-11-15T10:31:02;20.40;;;15.80;;
19645;SDS011;9971;52.446;13.452;2022-11-15T10:36:16;17.70;;;14.90;;
19645;SDS011;9971;52.446;13.452;2022-11-15T10:41:22;16.80;;;15.08;;
19645;SDS011;9971;52.446;13.452;2022-11-15T10:46:38;13.67;;;12.37;;
19645;SDS011;9971;52.446;13.452;2022-11-15T10:51:41;15.60;;;14.10;;
19645;SDS011;9971;52.446;13.452;2022-11-15T10:56:52;16.40;;;14.70;;
19645;SDS011;9971;52.446;13.452;2022-11-15T11:01:53;15.30;;;13.57;;
19645;SDS011;9971;52.446;13.452;2022-11-15T11:06:57;15.88;;;13.03;;
19645;SDS011;9971;52.446;13.452;2022-11-15T11:11:58;16.30;;;13.23;;
19645;SDS011;9971;52.446;13.452;2022-11-15T11:22:45;13.60;;;12.30;;
19645;SDS011;9971;52.446;13.452;2022-11-15T11:28:05;13.90;;;12.50;;
19645;SDS011;9971;52.446;13.452;2022-11-15T11:33:29;15.40;;;13.80;;
19645;SDS011;9971;52.446;13.452;2022-11-15T11:38:41;15.40;;;12.57;;
19645;SDS011;9971;52.446;13.452;2022-11-15T11:43:49;13.55;;;12.25;;
19645;SDS011;9971;52.446;13.452;2022-11-15T11:54:12;12.43;;;11.13;;
19645;SDS011;9971;52.446;13.452;2022-11-15T11:59:31;12.70;;;11.37;;
19645;SDS011;9971;52.446;13.452;2022-11-15T12:04:34;13.77;;;12.43;;
19645;SDS011;9971;52.446;13.452;2022-11-15T12:09:38;16.32;;;11.93;;
19645;SDS011;9971;52.446;13.452;2022-11-15T12:14:47;17.10;;;13.00;;
19645;SDS011;9971;52.446;13.452;2022-11-15T12:19:48;12.98;;;11.60;;
19645;SDS011;9971;52.446;13.452;2022-11-15T12:24:54;13.03;;;9.70;;
19645;SDS011;9971;52.446;13.452;2022-11-15T12:29:54;40.67;;;18.85;;
19645;SDS011;9971;52.446;13.452;2022-11-15T12:34:55;18.70;;;11.60;;
19645;SDS011;9971;52.446;13.452;2022-11-15T12:40:05;14.43;;;11.80;;
19645;SDS011;9971;52.446;13.452;2022-11-15T12:45:23;12.20;;;11.03;;
19645;SDS011;9971;52.446;13.452;2022-11-15T12:50:12;13.38;;;10.20;;
19645;SDS011;9971;52.446;13.452;2022-11-15T12:55:28;11.40;;;10.30;;
19645;SDS011;9971;52.446;13.452;2022-11-15T13:05:52;12.13;;;9.90;;
19645;SDS011;9971;52.446;13.452;2022-11-15T13:10:52;9.73;;;8.73;;
19645;SDS011;9971;52.446;13.452;2022-11-15T13:15:55;10.70;;;9.70;;
19645;SDS011;9971;52.446;13.452;2022-11-15T13:20:56;11.17;;;10.07;;
19645;SDS011;9971;52.446;13.452;2022-11-15T13:26:04;10.45;;;9.45;;
19645;SDS011;9971;52.446;13.452;2022-11-15T13:31:37;20.83;;;15.37;;
19645;SDS011;9971;52.446;13.452;2022-11-15T13:36:24;15.67;;;13.03;;
19645;SDS011;9971;52.446;13.452;2022-11-15T13:41:26;15.23;;;12.47;;
19645;SDS011;9971;52.446;13.452;2022-11-15T13:46:29;9.40;;;8.50;;
19645;SDS011;9971;52.446;13.452;2022-11-15T13:51:33;9.55;;;8.65;;
19645;SDS011;9971;52.446;13.452;2022-11-15T13:56:33;9.77;;;8.83;;
19645;SDS011;9971;52.446;13.452;2022-11-15T14:01:35;11.33;;;8.60;;
19645;SDS011;9971;52.446;13.452;2022-11-15T14:06:43;11.70;;;10.60;;
19645;SDS011;9971;52.446;13.452;2022-11-15T14:16:52;10.30;;;9.27;;
19645;SDS011;9971;52.446;13.452;2022-11-15T14:32:47;9.37;;;8.47;;
19645;SDS011;9971;52.446;13.452;2022-11-15T14:37:49;10.03;;;9.03;;
19645;SDS011;9971;52.446;13.452;2022-11-15T14:42:51;12.70;;;10.70;;
19645;SDS011;9971;52.446;13.452;2022-11-15T14:47:54;12.50;;;11.03;;
19645;SDS011;9971;52.446;13.452;2022-11-15T14:52:56;16.32;;;11.33;;
19645;SDS011;9971;52.446;13.452;2022-11-15T14:57:59;15.05;;;9.75;;
19645;SDS011;9971;52.446;13.452;2022-11-15T15:03:01;24.77;;;18.83;;
19645;SDS011;9971;52.446;13.452;2022-11-15T15:08:03;12.28;;;10.98;;
19645;SDS011;9971;52.446;13.452;2022-11-15T15:13:06;25.77;;;11.27;;
19645;SDS011;9971;52.446;13.452;2022-11-15T15:18:07;13.48;;;11.05;;
19645;SDS011;9971;52.446;13.452;2022-11-15T15:23:17;14.80;;;12.20;;
19645;SDS011;9971;52.446;13.452;2022-11-15T15:28:20;11.80;;;10.53;;
19645;SDS011;9971;52.446;13.452;2022-11-15T15:33:22;12.53;;;11.25;;
19645;SDS011;9971;52.446;13.452;2022-11-15T15:38:25;12.60;;;10.43;;
19645;SDS011;9971;52.446;13.452;2022-11-15T15:43:28;11.20;;;10.00;;
19645;SDS011;9971;52.446;13.452;2022-11-15T15:48:30;10.87;;;9.73;;
19645;SDS011;9971;52.446;13.452;2022-11-15T15:53:33;13.05;;;11.60;;
19645;SDS011;9971;52.446;13.452;2022-11-15T15:58:34;18.23;;;13.53;;
19645;SDS011;9971;52.446;13.452;2022-11-15T16:03:36;18.37;;;14.87;;
19645;SDS011;9971;52.446;13.452;2022-11-15T16:08:39;14.20;;;11.55;;
19645;SDS011;9971;52.446;13.452;2022-11-15T16:13:41;14.28;;;12.03;;
19645;SDS011;9971;52.446;13.452;2022-11-15T16:18:44;13.88;;;12.05;;
19645;SDS011;9971;52.446;13.452;2022-11-15T16:23:46;15.50;;;13.10;;
19645;SDS011;9971;52.446;13.452;2022-11-15T16:28:49;15.40;;;13.22;;
19645;SDS011;9971;52.446;13.452;2022-11-15T16:33:51;15.68;;;13.72;;
19645;SDS011;9971;52.446;13.452;2022-11-15T16:38:54;15.75;;;14.07;;
19645;SDS011;9971;52.446;13.452;2022-11-15T16:43:56;15.65;;;14.00;;
19645;SDS011;9971;52.446;13.452;2022-11-15T16:48:59;17.02;;;15.28;;
19645;SDS011;9971;52.446;13.452;2022-11-15T16:54:01;15.63;;;14.07;;
19645;SDS011;9971;52.446;13.452;2022-11-15T16:59:04;16.17;;;14.53;;
19645;SDS011;9971;52.446;13.452;2022-11-15T17:04:08;16.35;;;14.65;;
19645;SDS011;9971;52.446;13.452;2022-11-15T17:09:14;15.80;;;14.10;;
19645;SDS011;9971;52.446;13.452;2022-11-15T17:14:19;17.43;;;15.63;;
19645;SDS011;9971;52.446;13.452;2022-11-15T17:19:22;19.82;;;16.73;;
19645;SDS011;9971;52.446;13.452;2022-11-15T17:24:24;21.85;;;19.50;;
19645;SDS011;9971;52.446;13.452;2022-11-15T17:29:27;21.52;;;19.23;;
19645;SDS011;9971;52.446;13.452;2022-11-15T17:34:29;20.97;;;18.80;;
19645;SDS011;9971;52.446;13.452;2022-11-15T17:39:31;22.67;;;20.27;;
19645;SDS011;9971;52.446;13.452;2022-11-15T18:09:34;21.68;;;19.48;;
19645;SDS011;9971;52.446;13.452;2022-11-15T18:14:37;23.98;;;21.52;;
19645;SDS011;9971;52.446;13.452;2022-11-15T18:44:40;9.13;;;8.40;;
19645;SDS011;9971;52.446;13.452;2022-11-15T18:49:42;24.17;;;21.63;;
19645;SDS011;9971;52.446;13.452;2022-11-15T19:19:44;20.77;;;18.52;;
19645;SDS011;9971;52.446;13.452;2022-11-15T19:24:47;24.25;;;20.90;;
19645;SDS011;9971;52.446;13.452;2022-11-15T19:54:50;19.95;;;17.37;;
19645;SDS011;9971;52.446;13.452;2022-11-15T19:59:52;27.03;;;22.53;;
19645;SDS011;9971;52.446;13.452;2022-11-15T20:29:55;18.85;;;16.93;;
19645;SDS011;9971;52.446;13.452;2022-11-15T20:34:58;22.63;;;20.27;;
19645;SDS011;9971;52.446;13.452;2022-11-15T21:05:01;16.60;;;14.85;;
19645;SDS011;9971;52.446;13.452;2022-11-15T21:10:03;21.95;;;19.20;;
19645;SDS011;9971;52.446;13.452;2022-11-15T21:15:11;20.82;;;18.73;;
19645;SDS011;9971;52.446;13.452;2022-11-15T21:20:14;20.10;;;17.95;;
19645;SDS011;9971;52.446;13.452;2022-11-15T21:25:17;22.13;;;19.50;;
19645;SDS011;9971;52.446;13.452;2022-11-15T21:30:19;23.32;;;20.82;;
19645;SDS011;9971;52.446;13.452;2022-11-15T22:00:21;17.37;;;15.60;;
19645;SDS011;9971;52.446;13.452;2022-11-15T22:05:30;20.20;;;18.13;;
19645;SDS011;9971;52.446;13.452;2022-11-15T22:10:32;21.23;;;18.98;;
19645;SDS011;9971;52.446;13.452;2022-11-15T22:15:34;21.33;;;19.02;;
19645;SDS011;9971;52.446;13.452;2022-11-15T22:20:37;23.15;;;19.50;;
19645;SDS011;9971;52.446;13.452;2022-11-15T22:25:39;23.27;;;19.45;;
19645;SDS011;9971;52.446;13.452;2022-11-15T22:30:45;24.12;;;20.37;;
19645;SDS011;9971;52.446;13.452;2022-11-15T23:00:50;18.75;;;16.85;;
19645;SDS011;9971;52.446;13.452;2022-11-15T23:05:51;22.33;;;19.93;;
19645;SDS011;9971;52.446;13.452;2022-11-15T23:10:54;22.93;;;19.25;;
19645;SDS011;9971;52.446;13.452;2022-11-15T23:16:13;23.63;;;19.73;;
19645;SDS011;9971;52.446;13.452;2022-11-15T23:21:22;23.17;;;19.17;;
19645;SDS011;9971;52.446;13.452;2022-11-15T23:26:30;23.27;;;20.57;;
19645;SDS011;9971;52.446;13.452;2022-11-15T23:56:32;18.15;;;15.78;;
